Stinson Lake, New Hampshire
Current Conditions -  °F | °C
As of 8:55 PM on Friday 24 Oct 2014 (Local Time) from K1P1 Reporting Station
Overcast Overcast  
Wind Chill: 42°   Ceiling: 8000
Heat Index: 47°   Visibility: 10mi
Dew Point: 44°   Wind: 9mph
Humidity: 91%   Direction: 260°W
Pressure: 29.74"   Gusts: 16mph
Location:  43.86°N, 71.81°W
Report Text: K1P1 250055Z AUTO 26008G14KT 10SM SCT027 OVC080 08/07 A2974 RMK AO2 T00810067
Loading
Personal Weather Stations






























Interactive Weather Map
Tropical Storm Tracking
New forecast layout! Learn more

10-Day Weather Forecast

Advertisements
Track Severe Weather on mobile